Terminal Aerodrome Forecast
Issued by NWS Quad Cities IA IL

Home | Current Version | Previous Version | Text Only | Print | Product List | Glossary On
Versions: 1 2 3 4 5 6 7 8 9 10 11
991
FTUS43 KDVN 211721
TAFMLI
TAF
KMLI 211721Z 2118/2218 05012KT P6SM SCT250
     FM220100 05006KT P6SM BKN250=

USA.gov is the U.S. government's official web portal to all federal, state and local government web resources and services.